Thunder radar more information blitzortung!


Radar de pluja more information rain snow radar


Visita la nostra xarxa de llocs de meteo:

Template documentation
and downloads

And another site



No particular awareness of the weather is required.    There are no Weather-warnings

Pagina Historial Weather Underground text

Diari Resum Juny 2, 2017 Unitats:  Mètric    Imperial   Tant
« Previous Dia
SegĂźent Dia »
Diari Setmana Mensual Anual Personalitzada
  Maxima: Minima: Media:
Temperatura: 31.1 °C 15.4 °C 25 °C
Punt de rosada: 17.1 °C 9.5 °C 13.7 °C
Humitat: 72 % 38 % 51 %
Wind Speed: 17.5 km/h 0.0 km/h 6.9 km/h
RĂ fegues de vent: 17.5 km/h - -
Vent:- - SSW
Pression baro: 1018.8 hPa 1014.8 hPa -
Precipitacions: 0.0 mm    
Historical Graphs
 
 
Dades de taula per Juny 2, 2017
Temps Temperatura Punt de rosada Pression baro Vent Wind Speed RĂ fegues de vent Humitat Rainfall Rate (Hourly)
00:01 19.6 °C 9.8 °C 1018.8 hPa Calm     53 % 0.0 mm
00:06 19.5 °C 9.7 °C 1017.8 hPa Calm     53 % 0.0 mm
00:11 19.3 °C 9.5 °C 1017.8 hPa Calm     53 % 0.0 mm
00:15 17.0 °C 11.1 °C 1016.8 hPa Calm     68 % 0.0 mm
00:16 19.2 °C 9.7 °C 1017.8 hPa Calm     54 % 0.0 mm
00:25 17.0 °C 11.1 °C 1016.8 hPa NNW 1.6 km/h 1.6 km/h 68 % 0.0 mm
00:35 16.8 °C 10.8 °C 1016.8 hPa Calm   3.2 km/h 68 % 0.0 mm
00:45 16.5 °C 10.8 °C 1016.8 hPa Calm   3.2 km/h 69 % 0.0 mm
00:55 16.2 °C 10.5 °C 1016.8 hPa Calm   3.2 km/h 69 % 0.0 mm
01:05 15.8 °C 10.1 °C 1016.8 hPa SW 1.6 km/h 3.2 km/h 69 % 0.0 mm
01:15 15.6 °C 9.9 °C 1016.8 hPa WSW 3.2 km/h 4.8 km/h 69 % 0.0 mm
01:25 15.4 °C 9.9 °C 1016.8 hPa SW 4.8 km/h 4.8 km/h 70 % 0.0 mm
01:35 15.4 °C 10.4 °C 1016.8 hPa SW 1.6 km/h 3.2 km/h 72 % 0.0 mm
01:45 15.5 °C 10.4 °C 1016.8 hPa SW 3.2 km/h 3.2 km/h 72 % 0.0 mm
01:55 15.6 °C 10.6 °C 1016.8 hPa SW 3.2 km/h 4.8 km/h 72 % 0.0 mm
02:05 15.7 °C 10.7 °C 1017.8 hPa SW 1.6 km/h 3.2 km/h 72 % 0.0 mm
02:15 16.2 °C 11.2 °C 1017.8 hPa Calm   1.6 km/h 72 % 0.0 mm
02:25 16.7 °C 11.4 °C 1017.8 hPa Calm   1.6 km/h 71 % 0.0 mm
02:35 17.4 °C 11.9 °C 1017.8 hPa South 1.6 km/h 3.2 km/h 70 % 0.0 mm
02:45 17.8 °C 11.8 °C 1017.8 hPa ENE 1.6 km/h 3.2 km/h 68 % 0.0 mm
02:55 18.0 °C 12.0 °C 1017.8 hPa NE 3.2 km/h 3.2 km/h 68 % 0.0 mm
03:05 18.2 °C 11.9 °C 1017.8 hPa ENE 3.2 km/h 6.4 km/h 67 % 0.0 mm
03:15 18.6 °C 12.1 °C 1017.8 hPa ENE 3.2 km/h 4.8 km/h 66 % 0.0 mm
03:25 19.0 °C 12.1 °C 1017.8 hPa NE 3.2 km/h 3.2 km/h 64 % 0.0 mm
03:35 19.8 °C 12.6 °C 1017.8 hPa NNE 1.6 km/h 3.2 km/h 63 % 0.0 mm
03:45 19.5 °C 12.0 °C 1017.8 hPa WSW 1.6 km/h 4.8 km/h 62 % 0.0 mm
03:55 20.4 °C 12.9 °C 1017.8 hPa SSW 1.6 km/h 3.2 km/h 62 % 0.0 mm
04:10 20.8 °C 13.0 °C 1017.8 hPa South 1.6 km/h 4.8 km/h 61 % 0.0 mm
04:20 21.1 °C 13.1 °C 1017.8 hPa SW 3.2 km/h 4.8 km/h 60 % 0.0 mm
04:30 21.7 °C 13.3 °C 1017.8 hPa SSW 4.8 km/h 6.4 km/h 59 % 0.0 mm
04:40 22.5 °C 13.8 °C 1017.8 hPa SSW 1.6 km/h 4.8 km/h 58 % 0.0 mm
04:50 22.9 °C 13.7 °C 1017.8 hPa SW 4.8 km/h 4.8 km/h 56 % 0.0 mm
05:00 23.2 °C 13.9 °C 1017.8 hPa SW 1.6 km/h 4.8 km/h 56 % 0.0 mm
05:10 23.6 °C 14.3 °C 1017.8 hPa SW 3.2 km/h 9.7 km/h 56 % 0.0 mm
05:20 23.7 °C 14.4 °C 1017.8 hPa SW 3.2 km/h 8.0 km/h 56 % 0.0 mm
10:21 23.7 °C 14.4 °C 1017.8 hPa WSW 5.6 km/h 6.1 km/h 56 % 0.0 mm
10:26 23.8 °C 14.5 °C 1017.8 hPa SSW 5.3 km/h 5.3 km/h 56 % 0.0 mm
10:31 23.8 °C 14.5 °C 1017.8 hPa West 7.4 km/h 7.4 km/h 56 % 0.0 mm
10:36 23.9 °C 14.6 °C 1017.8 hPa SSW 7.9 km/h 7.9 km/h 56 % 0.0 mm
10:41 24.2 °C 14.6 °C 1017.8 hPa SSW 7.6 km/h 7.6 km/h 55 % 0.0 mm
10:46 24.6 °C 14.7 °C 1017.8 hPa South 9.3 km/h 9.3 km/h 54 % 0.0 mm
10:51 24.6 °C 14.7 °C 1017.8 hPa ESE 5.6 km/h 5.6 km/h 54 % 0.0 mm
10:56 25.2 °C 14.9 °C 1017.8 hPa WSW 3.7 km/h 3.9 km/h 53 % 0.0 mm
11:01 25.9 °C 15.6 °C 1017.8 hPa SW 6.1 km/h 6.1 km/h 53 % 0.0 mm
11:06 25.8 °C 15.2 °C 1016.8 hPa South 5.6 km/h 5.6 km/h 52 % 0.0 mm
11:11 26.1 °C 15.2 °C 1016.8 hPa SSW 3.7 km/h 3.7 km/h 51 % 0.0 mm
11:16 26.5 °C 15.6 °C 1016.8 hPa SSW 9.3 km/h 9.3 km/h 51 % 0.0 mm
11:21 26.4 °C 15.4 °C 1016.8 hPa South 7.4 km/h 7.4 km/h 51 % 0.0 mm
11:26 26.7 °C 15.4 °C 1016.8 hPa WSW 7.4 km/h 7.4 km/h 50 % 0.0 mm
11:31 26.7 °C 15.4 °C 1016.8 hPa South 7.4 km/h 7.4 km/h 50 % 0.0 mm
11:36 26.9 °C 15.6 °C 1016.8 hPa SSE 7.4 km/h 7.4 km/h 50 % 0.0 mm
11:41 26.9 °C 15.3 °C 1016.8 hPa South 7.4 km/h 7.4 km/h 49 % 0.0 mm
11:46 27.5 °C 15.5 °C 1016.8 hPa South 5.6 km/h 5.6 km/h 48 % 0.0 mm
11:51 27.8 °C 15.4 °C 1015.8 hPa SSE 7.4 km/h 7.4 km/h 47 % 0.0 mm
11:56 28.0 °C 15.6 °C 1015.8 hPa SW 3.7 km/h 3.7 km/h 47 % 0.0 mm
12:01 27.9 °C 15.6 °C 1015.8 hPa SW 11.1 km/h 11.1 km/h 47 % 0.0 mm
12:06 27.4 °C 14.8 °C 1016.8 hPa SW 14.8 km/h 14.8 km/h 46 % 0.0 mm
12:11 27.5 °C 14.8 °C 1016.8 hPa SW 10.0 km/h 10.0 km/h 46 % 0.0 mm
12:16 27.4 °C 14.4 °C 1016.8 hPa South 9.3 km/h 9.3 km/h 45 % 0.0 mm
12:21 27.6 °C 14.6 °C 1016.8 hPa WSW 13.0 km/h 13.0 km/h 45 % 0.0 mm
12:26 27.8 °C 14.8 °C 1016.8 hPa SSW 9.3 km/h 9.3 km/h 45 % 0.0 mm
12:31 28.4 °C 15.3 °C 1016.8 hPa WSW 9.3 km/h 9.3 km/h 45 % 0.0 mm
12:36 28.4 °C 15.3 °C 1016.8 hPa SSW 11.1 km/h 11.1 km/h 45 % 0.0 mm
12:41 28.3 °C 14.9 °C 1016.8 hPa South 7.9 km/h 7.9 km/h 44 % 0.0 mm
12:46 28.7 °C 15.2 °C 1016.8 hPa SW 10.3 km/h 10.3 km/h 44 % 0.0 mm
12:51 28.5 °C 14.7 °C 1015.8 hPa WSW 11.9 km/h 11.9 km/h 43 % 0.0 mm
12:56 28.7 °C 14.9 °C 1015.8 hPa WSW 13.0 km/h 13.0 km/h 43 % 0.0 mm
13:01 29.2 °C 14.9 °C 1015.8 hPa SE 5.6 km/h 5.6 km/h 42 % 0.0 mm
13:06 29.7 °C 15.4 °C 1015.8 hPa SW 5.8 km/h 5.8 km/h 42 % 0.0 mm
13:07 29.7 °C 15.4 °C 1015.8 hPa South 7.4 km/h 7.4 km/h 42 % 0.0 mm
13:12 30.4 °C 16.1 °C 1015.8 hPa SSE 5.6 km/h 5.6 km/h 42 % 0.0 mm
13:17 30.7 °C 15.9 °C 1015.8 hPa SW 5.6 km/h 5.6 km/h 41 % 0.0 mm
13:22 30.0 °C 15.7 °C 1015.8 hPa South 9.3 km/h 9.3 km/h 42 % 0.0 mm
13:27 29.3 °C 15.4 °C 1015.8 hPa ESE 6.1 km/h 6.1 km/h 43 % 0.0 mm
13:32 29.0 °C 15.5 °C 1015.8 hPa East 9.3 km/h 9.3 km/h 44 % 0.0 mm
13:37 28.6 °C 15.5 °C 1015.8 hPa ESE 11.1 km/h 11.1 km/h 45 % 0.0 mm
13:42 28.2 °C 15.2 °C 1015.8 hPa SE 14.8 km/h 14.8 km/h 45 % 0.0 mm
13:47 27.8 °C 14.8 °C 1015.8 hPa SE 13.0 km/h 13.0 km/h 45 % 0.0 mm
13:52 27.9 °C 15.2 °C 1015.8 hPa NE 9.3 km/h 9.3 km/h 46 % 0.0 mm
13:57 27.9 °C 15.2 °C 1015.8 hPa WSW 13.0 km/h 13.0 km/h 46 % 0.0 mm
14:02 28.5 °C 16.1 °C 1015.8 hPa SSE 5.6 km/h 5.6 km/h 47 % 0.0 mm
14:07 28.4 °C 15.7 °C 1015.8 hPa East 7.4 km/h 7.4 km/h 46 % 0.0 mm
14:12 28.5 °C 15.8 °C 1015.8 hPa ESE 9.3 km/h 9.3 km/h 46 % 0.0 mm
14:17 28.5 °C 15.8 °C 1015.8 hPa SSE 9.3 km/h 9.3 km/h 46 % 0.0 mm
14:22 29.5 °C 16.3 °C 1015.8 hPa South 11.1 km/h 11.1 km/h 45 % 0.0 mm
14:27 30.0 °C 16.4 °C 1015.8 hPa SE 3.7 km/h 3.7 km/h 44 % 0.0 mm
14:32 30.7 °C 17.1 °C 1015.8 hPa South 5.6 km/h 5.6 km/h 44 % 0.0 mm
14:37 30.8 °C 17.1 °C 1015.8 hPa SSW 9.5 km/h 9.5 km/h 44 % 0.0 mm
14:42 30.5 °C 16.5 °C 1015.8 hPa SW 9.3 km/h 9.3 km/h 43 % 0.0 mm
14:47 30.3 °C 16.3 °C 1015.8 hPa South 9.3 km/h 9.3 km/h 43 % 0.0 mm
14:52 30.6 °C 16.6 °C 1014.8 hPa West 9.3 km/h 9.3 km/h 43 % 0.0 mm
14:57 30.6 °C 16.2 °C 1014.8 hPa SW 11.1 km/h 11.1 km/h 42 % 0.0 mm
15:02 30.3 °C 15.6 °C 1014.8 hPa SW 9.7 km/h 9.7 km/h 41 % 0.0 mm
15:07 30.4 °C 15.7 °C 1014.8 hPa WSW 11.1 km/h 11.1 km/h 41 % 0.0 mm
15:12 31.0 °C 15.8 °C 1014.8 hPa WNW 7.4 km/h 7.4 km/h 40 % 0.0 mm
15:17 31.1 °C 15.9 °C 1014.8 hPa SSW 5.6 km/h 5.6 km/h 40 % 0.0 mm
15:22 30.4 °C 15.3 °C 1014.8 hPa South 13.0 km/h 13.0 km/h 40 % 0.0 mm
15:27 31.0 °C 15.4 °C 1014.8 hPa SSW 5.8 km/h 5.8 km/h 39 % 0.0 mm
15:32 30.4 °C 14.9 °C 1014.8 hPa West 14.8 km/h 14.8 km/h 39 % 0.0 mm
15:37 30.2 °C 14.7 °C 1014.8 hPa WSW 13.0 km/h 13.0 km/h 39 % 0.0 mm
15:42 30.5 °C 15.0 °C 1014.8 hPa SSW 9.3 km/h 9.3 km/h 39 % 0.0 mm
15:47 30.3 °C 14.8 °C 1014.8 hPa SW 14.8 km/h 14.8 km/h 39 % 0.0 mm
15:52 30.2 °C 14.3 °C 1014.8 hPa SW 14.8 km/h 14.8 km/h 38 % 0.0 mm
15:57 30.0 °C 14.6 °C 1014.8 hPa West 11.1 km/h 11.1 km/h 39 % 0.0 mm
16:02 30.4 °C 14.5 °C 1014.8 hPa South 5.6 km/h 5.6 km/h 38 % 0.0 mm
16:07 30.5 °C 14.6 °C 1014.8 hPa SW 11.1 km/h 11.1 km/h 38 % 0.0 mm
16:12 30.2 °C 14.3 °C 1014.8 hPa SSW 13.0 km/h 13.0 km/h 38 % 0.0 mm
16:17 29.7 °C 13.9 °C 1014.8 hPa SW 13.0 km/h 13.0 km/h 38 % 0.0 mm
16:22 29.8 °C 14.3 °C 1014.8 hPa West 9.3 km/h 9.3 km/h 39 % 0.0 mm
16:27 29.3 °C 13.9 °C 1014.8 hPa South 11.1 km/h 11.1 km/h 39 % 0.0 mm
16:28 29.3 °C 13.9 °C 1014.8 hPa SW 11.1 km/h 11.1 km/h 39 % 0.0 mm
16:33 29.3 °C 13.9 °C 1014.8 hPa West 12.2 km/h 12.2 km/h 39 % 0.0 mm
16:38 29.0 °C 13.7 °C 1014.8 hPa South 13.0 km/h 13.0 km/h 39 % 0.0 mm
16:43 28.7 °C 13.8 °C 1014.8 hPa South 14.8 km/h 14.8 km/h 40 % 0.0 mm
16:48 29.0 °C 13.7 °C 1014.8 hPa South 14.8 km/h 14.8 km/h 39 % 0.0 mm
16:53 29.1 °C 13.7 °C 1014.8 hPa SSW 10.3 km/h 10.3 km/h 39 % 0.0 mm
16:58 28.9 °C 13.9 °C 1014.8 hPa SW 17.5 km/h 17.5 km/h 40 % 0.0 mm
17:03 28.7 °C 13.8 °C 1014.8 hPa WNW 14.8 km/h 14.8 km/h 40 % 0.0 mm
17:08 28.7 °C 13.8 °C 1014.8 hPa SW 13.0 km/h 13.0 km/h 40 % 0.0 mm
17:13 28.4 °C 13.5 °C 1014.8 hPa WSW 13.0 km/h 13.0 km/h 40 % 0.0 mm
17:18 28.0 °C 13.2 °C 1014.8 hPa SSW 16.7 km/h 16.7 km/h 40 % 0.0 mm
17:23 27.8 °C 13.3 °C 1014.8 hPa WSW 16.7 km/h 16.7 km/h 41 % 0.0 mm
17:28 28.1 °C 14.0 °C 1014.8 hPa SW 7.4 km/h 7.4 km/h 42 % 0.0 mm
17:33 28.4 °C 14.2 °C 1014.8 hPa South 10.3 km/h 10.3 km/h 42 % 0.0 mm
17:34 28.4 °C 14.2 °C 1014.8 hPa South 11.1 km/h 11.1 km/h 42 % 0.0 mm
17:39 27.8 °C 13.7 °C 1014.8 hPa SSW 9.3 km/h 9.3 km/h 42 % 0.0 mm
17:44 27.8 °C 13.3 °C 1014.8 hPa SW 7.4 km/h 7.4 km/h 41 % 0.0 mm
17:49 27.9 °C 13.4 °C 1014.8 hPa SSW 13.0 km/h 13.0 km/h 41 % 0.0 mm
17:54 27.8 °C 13.3 °C 1014.8 hPa WSW 9.7 km/h 9.7 km/h 41 % 0.0 mm
17:55 27.6 °C 13.2 °C 1014.8 hPa SW 11.4 km/h 11.4 km/h 41 % 0.0 mm
18:00 27.5 °C 13.1 °C 1014.8 hPa South 13.0 km/h 13.0 km/h 41 % 0.0 mm
18:05 27.3 °C 13.3 °C 1014.8 hPa SSW 11.1 km/h 11.1 km/h 42 % 0.0 mm
18:06 27.3 °C 13.3 °C 1014.8 hPa West 9.3 km/h 9.3 km/h 42 % 0.0 mm
18:11 27.6 °C 13.6 °C 1014.8 hPa SSW 14.8 km/h 14.8 km/h 42 % 0.0 mm
18:16 27.6 °C 13.2 °C 1014.8 hPa SW 9.3 km/h 9.3 km/h 41 % 0.0 mm
18:21 27.4 °C 13.3 °C 1014.8 hPa SW 7.4 km/h 7.4 km/h 42 % 0.0 mm
18:26 27.8 °C 13.7 °C 1014.8 hPa SSE 10.3 km/h 10.3 km/h 42 % 0.0 mm
18:31 27.6 °C 13.6 °C 1014.8 hPa SW 9.5 km/h 9.5 km/h 42 % 0.0 mm
18:36 27.8 °C 13.7 °C 1014.8 hPa SW 7.9 km/h 7.9 km/h 42 % 0.0 mm
18:41 27.6 °C 13.2 °C 1014.8 hPa SSE 9.3 km/h 9.3 km/h 41 % 0.0 mm
18:46 27.6 °C 13.2 °C 1014.8 hPa SW 5.6 km/h 5.6 km/h 41 % 0.0 mm
18:51 27.5 °C 13.1 °C 1014.8 hPa WSW 11.1 km/h 11.1 km/h 41 % 0.0 mm
18:56 27.0 °C 12.6 °C 1014.8 hPa West 5.8 km/h 5.8 km/h 41 % 0.0 mm
19:01 26.7 °C 12.7 °C 1014.8 hPa SW 9.3 km/h 9.3 km/h 42 % 0.0 mm
19:06 26.4 °C 12.4 °C 1015.8 hPa SW 12.2 km/h 12.2 km/h 42 % 0.0 mm
19:11 26.1 °C 12.2 °C 1015.8 hPa WSW 9.3 km/h 9.3 km/h 42 % 0.0 mm
19:16 25.7 °C 11.8 °C 1015.8 hPa SW 9.3 km/h 9.3 km/h 42 % 0.0 mm
19:21 25.6 °C 12.1 °C 1014.8 hPa WSW 3.7 km/h 3.7 km/h 43 % 0.0 mm
19:26 25.4 °C 11.9 °C 1014.8 hPa SW 9.3 km/h 9.3 km/h 43 % 0.0 mm
19:31 25.4 °C 12.3 °C 1014.8 hPa SW 8.7 km/h 8.7 km/h 44 % 0.0 mm
19:36 25.1 °C 12.0 °C 1015.8 hPa WSW 5.6 km/h 5.6 km/h 44 % 0.0 mm
19:41 24.8 °C 12.1 °C 1015.8 hPa SW 5.6 km/h 5.6 km/h 45 % 0.0 mm
19:46 24.6 °C 12.2 °C 1015.8 hPa SW 5.6 km/h 5.6 km/h 46 % 0.0 mm
19:51 24.4 °C 12.0 °C 1015.8 hPa SSW 1.9 km/h   46 % 0.0 mm
19:56 24.3 °C 11.9 °C 1015.8 hPa ESE 1.9 km/h 1.9 km/h 46 % 0.0 mm
20:01 24.4 °C 12.0 °C 1015.8 hPa SW 1.9 km/h   46 % 0.0 mm
20:06 24.3 °C 11.9 °C 1014.8 hPa SSW 3.7 km/h 3.7 km/h 46 % 0.0 mm
20:11 24.3 °C 12.3 °C 1014.8 hPa SW 2.6 km/h 2.6 km/h 47 % 0.0 mm
20:13 24.2 °C 12.2 °C 1014.8 hPa WSW 3.7 km/h 3.7 km/h 47 % 0.0 mm
20:18 24.3 °C 12.3 °C 1014.8 hPa Calm     47 % 0.0 mm
20:23 23.9 °C 11.9 °C 1015.8 hPa ENE 3.7 km/h 3.7 km/h 47 % 0.0 mm
20:28 23.7 °C 12.7 °C 1015.8 hPa WSW 11.1 km/h 11.1 km/h 50 % 0.0 mm
20:33 23.6 °C 12.9 °C 1015.8 hPa NE 3.7 km/h 3.7 km/h 51 % 0.0 mm
20:38 23.5 °C 13.7 °C 1015.8 hPa ESE 9.3 km/h 9.3 km/h 54 % 0.0 mm
20:43 23.3 °C 14.1 °C 1015.8 hPa ESE 9.3 km/h 9.3 km/h 56 % 0.0 mm
20:48 23.2 °C 13.9 °C 1015.8 hPa NNE 7.4 km/h 7.4 km/h 56 % 0.0 mm
20:53 23.0 °C 13.7 °C 1015.8 hPa ESE 10.3 km/h 10.3 km/h 56 % 0.0 mm
20:58 22.9 °C 13.9 °C 1015.8 hPa NNE 9.3 km/h 9.3 km/h 57 % 0.0 mm
21:03 22.7 °C 14.0 °C 1015.8 hPa East 7.4 km/h 7.4 km/h 58 % 0.0 mm
21:06 22.7 °C 14.0 °C 1015.8 hPa ENE 7.4 km/h 7.4 km/h 58 % 0.0 mm
21:11 22.6 °C 14.2 °C 1015.8 hPa ENE 7.4 km/h 7.4 km/h 59 % 0.0 mm
21:16 22.5 °C 14.1 °C 1015.8 hPa ESE 3.7 km/h 3.7 km/h 59 % 0.0 mm
21:21 22.4 °C 14.3 °C 1015.8 hPa ENE 5.6 km/h 5.6 km/h 60 % 0.0 mm
21:26 22.4 °C 14.3 °C 1015.8 hPa SE 3.7 km/h 3.7 km/h 60 % 0.0 mm
21:31 22.2 °C 14.1 °C 1015.8 hPa SSE 7.4 km/h 7.4 km/h 60 % 0.0 mm
21:36 22.2 °C 14.1 °C 1015.8 hPa ENE 4.7 km/h 4.7 km/h 60 % 0.0 mm
21:41 22.1 °C 13.9 °C 1015.8 hPa ESE 3.7 km/h 3.7 km/h 60 % 0.0 mm
21:46 22.0 °C 13.9 °C 1015.8 hPa SSW 2.3 km/h 2.3 km/h 60 % 0.0 mm
21:47 22.0 °C 13.9 °C 1015.8 hPa SSW 1.9 km/h   60 % 0.0 mm
21:52 21.9 °C 14.1 °C 1015.8 hPa SW 1.4 km/h   61 % 0.0 mm
21:57 21.8 °C 13.9 °C 1015.8 hPa WSW 4.2 km/h 4.2 km/h 61 % 0.0 mm
22:02 21.8 °C 13.9 °C 1015.8 hPa WSW 3.7 km/h 3.7 km/h 61 % 0.0 mm
22:07 21.7 °C 14.1 °C 1015.8 hPa SW 3.7 km/h 3.7 km/h 62 % 0.0 mm
22:12 21.6 °C 13.8 °C 1015.8 hPa SSW 3.7 km/h 3.7 km/h 61 % 0.0 mm
22:17 21.4 °C 13.6 °C 1015.8 hPa WSW 9.3 km/h 9.3 km/h 61 % 0.0 mm
22:22 21.3 °C 13.7 °C 1016.8 hPa West 5.6 km/h 5.6 km/h 62 % 0.0 mm
22:27 21.4 °C 13.6 °C 1016.8 hPa WSW 5.6 km/h 5.6 km/h 61 % 0.0 mm
22:32 21.4 °C 13.6 °C 1016.8 hPa SW 4.2 km/h 4.2 km/h 61 % 0.0 mm
22:37 21.4 °C 13.3 °C 1016.8 hPa WSW 5.6 km/h 5.6 km/h 60 % 0.0 mm
22:42 21.3 °C 13.2 °C 1016.8 hPa SW 6.1 km/h 6.1 km/h 60 % 0.0 mm
22:47 21.2 °C 13.1 °C 1016.8 hPa West 5.6 km/h 5.6 km/h 60 % 0.0 mm
22:52 21.2 °C 13.1 °C 1016.8 hPa SSW 3.7 km/h 3.7 km/h 60 % 0.0 mm
22:57 21.2 °C 13.1 °C 1016.8 hPa WSW 3.9 km/h 3.9 km/h 60 % 0.0 mm
23:02 21.2 °C 13.1 °C 1016.8 hPa WSW 4.7 km/h 4.7 km/h 60 % 0.0 mm
23:07 21.1 °C 13.3 °C 1015.8 hPa SW 2.3 km/h 2.3 km/h 61 % 0.0 mm
23:12 21.0 °C 13.2 °C 1015.8 hPa Calm     61 % 0.0 mm
23:17 21.0 °C 13.4 °C 1015.8 hPa East 5.6 km/h 5.6 km/h 62 % 0.0 mm
23:22 21.1 °C 13.3 °C 1015.8 hPa ENE 3.7 km/h 3.7 km/h 61 % 0.0 mm
23:27 21.0 °C 13.4 °C 1015.8 hPa ENE 1.9 km/h   62 % 0.0 mm
23:32 21.1 °C 13.6 °C 1015.8 hPa ENE 1.9 km/h 1.9 km/h 62 % 0.0 mm
23:37 21.1 °C 13.6 °C 1015.8 hPa Calm     62 % 0.0 mm
23:42 21.0 °C 13.4 °C 1015.8 hPa Calm     62 % 0.0 mm
23:47 21.0 °C 13.4 °C 1015.8 hPa SW 3.7 km/h 3.7 km/h 62 % 0.0 mm
23:52 20.9 °C 13.3 °C 1015.8 hPa WSW 3.7 km/h 3.7 km/h 62 % 0.0 mm
23:57 20.8 °C 13.3 °C 1015.8 hPa WSW 3.7 km/h 3.7 km/h 62 % 0.0 mm
Meteo Sesrovires
Elogis d' Weather Underground - 3.5 mb

Guio original per  Jim McMurry - jmcmurry@mwt.net Adaptat per a la plantilla per  Wim van der Kuil - Leuven-Template.eu

Trobareu la nostra informacio del temps tambe a:

Weather Underground

AWEKAS